Conroe Lone Star Executive Airport

About
Name: Conroe Lone Star Executive Airport
Identifier:  CXO/KCXO
Serves:  Houston, Texas
Owner:  Montgomery County
Public/Private:  Public
Local Time:  22. Sep 05:09 CDT
Description: Conroe-North Houston Regional Airport is a public-use airport in Conroe, Texas, United States, 37 miles north of the central business district of Houston. It is publicly owned by Montgomery County.
Source: Wikipedia
Location
Runways
Identifier Length (m/ft) Surface
14/32 7,501/7,501 Concrete
1/19 5,000/5,000 Concrete
Statistics
Flights per Day:
0 flights
Distance: 670km (416mi)
Flights delayed:
0% (0 flights per day delayed)
Delay Average: 659 minutes
Current Weather
 24 C (Humidity: 94%)
  4kt (7km/h / 4mph) from 100°
  Broken clouds at 300 feet (91 meter)
  Overcast at 1,900 feet (579 meter)
  11km (7 mi.)
 METAR KCXO 220953Z AUTO 10004KT 7SM BKN003 OVC019 24/23 A3003 RMK AO2 SLP165 T02390233

Current Delays

Departures
N/A
Arrivals
N/A

Destinations

Top Destinations
Airport Flights
per week
Seats
per week
  Houston (HOU) 0 - 0 0
  Ruidoso (RUI) 0 - 0 0

Airlines & Planes

Top Airlines
Airline Flights
per Day
Seats
per Day
  Novair 0 -
  Flybe Nordic 0 -
Top Plane Types
Model Flights Seats
Cessna C55B 0.0/day - 0